Main page
METAR-TAF:

METAR-TAF

Airports :

Isfahan International Airport

Esfahān, Iran

latitude: 32-28N, longitude: 051-43E, elevation: 1590 m

Current weather observation

The report was made 34 minutes ago, at 20:00 UTC
Calm wind
Temperature 24°C
Humidity 20%
Pressure 1011 hPa
Visibility 10 km or more
no clouds below 1500 m and no cumulonimbus

METAR: OIFM 222000Z 00000KT CAVOK 24/00 Q1011 A2986

Time: 01:04 (20:34 UTC)

Forecast

The report was made 3 hours and 4 minutes ago, at 17:30 UTC
Forecast valid from 22 at 18 UTC to 23 at 24 UTC
Wind 8 kt from the West
Visibility 10 km or more
no clouds below 1500 m and no cumulonimbus
Temporary
from 23 at 12 UTC to 23 at 18 UTC
Wind 16 kt from the West/Southwest

TAF: OIFM 221730Z 2218/2324 27004MPS CAVOK TEMPO 2312/2318 24008MPS

Weather observations and forecasts of more than 4000 airports (METAR and TAF reports).

The available stations are represented by yellow and red dots on the map.

Hover mouse over dot to see the name of the station.

Then click to see weather observations and forecasts.

To change the map : click on the green buttons with a black cross to zoom in, on the green button with a dash to zoom out, or on the green arrows for adjacent maps.


METAR-TAF: